createdAt,value
2022-12-16T00:02:04.963Z,11.80
2022-12-16T00:04:32.824Z,11.07
2022-12-16T00:07:00.566Z,12.67
2022-12-16T00:09:29.728Z,11.73
2022-12-16T00:11:57.498Z,10.47
2022-12-16T00:14:27.338Z,11.70
2022-12-16T00:16:55.135Z,13.23
2022-12-16T00:19:22.939Z,14.13
2022-12-16T00:21:50.664Z,12.03
2022-12-16T00:24:19.815Z,13.70
2022-12-16T00:26:49.049Z,13.13
2022-12-16T00:29:17.492Z,12.73
2022-12-16T00:31:48.030Z,13.70
2022-12-16T00:34:16.388Z,12.57
2022-12-16T00:36:45.031Z,11.50
2022-12-16T00:39:12.839Z,12.20
2022-12-16T00:41:40.687Z,14.53
2022-12-16T00:44:10.568Z,14.47
2022-12-16T00:46:38.313Z,12.63
2022-12-16T00:49:06.291Z,15.47
2022-12-16T00:51:34.399Z,16.40
2022-12-16T00:54:02.363Z,13.40
2022-12-16T00:56:30.122Z,15.70
2022-12-16T00:58:57.904Z,14.10
2022-12-16T01:01:27.204Z,14.23
2022-12-16T01:03:57.287Z,16.17
2022-12-16T01:06:25.221Z,15.60
2022-12-16T01:08:53.038Z,20.07
2022-12-16T01:11:22.732Z,17.80
2022-12-16T01:13:52.490Z,15.87
2022-12-16T01:16:23.232Z,16.03
2022-12-16T01:18:53.435Z,14.27
2022-12-16T01:21:23.628Z,14.50
2022-12-16T01:23:51.612Z,14.40
2022-12-16T01:26:22.849Z,13.97
2022-12-16T01:28:50.650Z,14.83
2022-12-16T01:31:20.511Z,15.53
2022-12-16T01:33:48.615Z,13.60
2022-12-16T01:36:18.095Z,13.23
2022-12-16T01:38:46.327Z,15.20
2022-12-16T01:41:15.562Z,13.20
2022-12-16T01:43:44.481Z,16.40
2022-12-16T01:46:20.361Z,14.37
2022-12-16T01:48:52.822Z,15.27
2022-12-16T01:51:28.105Z,13.00
2022-12-16T01:53:59.181Z,14.23
2022-12-16T01:56:29.504Z,16.50
2022-12-16T01:58:58.309Z,13.43
2022-12-16T02:01:26.541Z,13.07
2022-12-16T02:03:56.922Z,14.30
2022-12-16T02:06:26.599Z,14.67
2022-12-16T02:08:58.078Z,13.57
2022-12-16T02:11:58.279Z,13.37
2022-12-16T02:14:40.774Z,14.13
2022-12-16T02:17:16.046Z,12.47
2022-12-16T02:20:13.749Z,11.83
2022-12-16T02:22:53.214Z,12.30
2022-12-16T02:25:53.166Z,12.00
2022-12-16T02:28:38.694Z,13.00
2022-12-16T02:31:22.779Z,11.17
2022-12-16T02:34:03.220Z,13.33
2022-12-16T02:36:45.568Z,12.30
2022-12-16T02:39:16.657Z,11.73
2022-12-16T02:41:51.696Z,10.30
2022-12-16T02:44:22.110Z,13.27
2022-12-16T02:46:55.948Z,11.47
2022-12-16T02:49:46.037Z,12.80
2022-12-16T02:52:15.694Z,12.07
2022-12-16T02:54:45.057Z,12.17
2022-12-16T02:57:24.748Z,12.67
2022-12-16T03:00:02.663Z,12.37
2022-12-16T03:02:41.876Z,13.20
2022-12-16T03:05:16.180Z,13.27
2022-12-16T03:07:46.306Z,15.73
2022-12-16T03:10:18.524Z,12.40
2022-12-16T03:12:47.447Z,10.67
2022-12-16T03:15:22.579Z,14.73
2022-12-16T03:17:53.922Z,14.27
2022-12-16T03:20:28.897Z,11.67
2022-12-16T03:23:02.928Z,12.80
2022-12-16T03:25:35.663Z,13.70
2022-12-16T03:28:11.616Z,13.07
2022-12-16T03:30:43.874Z,12.23
2022-12-16T03:33:20.581Z,11.40
2022-12-16T03:35:53.248Z,12.47
2022-12-16T03:38:22.718Z,12.80
2022-12-16T03:40:52.271Z,13.47
2022-12-16T03:43:22.876Z,14.33
2022-12-16T03:45:55.238Z,14.00
2022-12-16T03:48:27.482Z,11.53
2022-12-16T03:50:55.623Z,12.57
2022-12-16T03:53:26.452Z,12.17
2022-12-16T03:55:54.500Z,11.57
2022-12-16T03:58:22.708Z,13.07
2022-12-16T04:00:50.778Z,14.10
2022-12-16T04:03:18.874Z,13.03
2022-12-16T04:05:48.108Z,13.43
2022-12-16T04:08:15.898Z,13.07
2022-12-16T04:11:01.112Z,12.93
2022-12-16T04:13:46.543Z,10.77
2022-12-16T04:16:34.619Z,13.07
2022-12-16T04:19:20.681Z,12.10
2022-12-16T04:22:07.664Z,11.73
2022-12-16T04:24:37.000Z,11.67
2022-12-16T04:27:22.566Z,10.93
2022-12-16T04:30:07.896Z,11.63
2022-12-16T04:32:49.701Z,11.47
2022-12-16T04:35:34.946Z,9.27
2022-12-16T04:38:21.642Z,10.13
2022-12-16T04:41:07.032Z,10.43
2022-12-16T04:43:52.230Z,11.03
2022-12-16T04:46:37.765Z,11.93
2022-12-16T04:49:23.048Z,12.50
2022-12-16T04:52:08.243Z,9.97
2022-12-16T04:54:55.280Z,12.30
2022-12-16T04:57:40.707Z,11.27
2022-12-16T05:00:26.989Z,8.13
2022-12-16T05:03:11.270Z,11.90
2022-12-16T05:05:56.967Z,13.10
2022-12-16T05:08:41.956Z,9.67
2022-12-16T05:11:25.032Z,14.97
2022-12-16T05:14:10.382Z,12.73
2022-12-16T05:16:55.471Z,12.23
2022-12-16T05:19:40.737Z,12.83
2022-12-16T05:22:25.852Z,12.87
2022-12-16T05:25:11.021Z,10.73
2022-12-16T05:27:58.357Z,13.93
2022-12-16T05:30:44.199Z,13.33
2022-12-16T05:33:29.871Z,12.00
2022-12-16T05:36:15.416Z,12.47
2022-12-16T05:39:00.551Z,12.47
2022-12-16T05:41:45.736Z,11.67
2022-12-16T05:44:32.456Z,10.63
2022-12-16T05:47:17.563Z,12.23
2022-12-16T05:50:02.627Z,12.37
2022-12-16T05:52:47.825Z,11.93
2022-12-16T05:55:34.178Z,11.77
2022-12-16T05:58:19.712Z,11.60
2022-12-16T06:01:06.500Z,11.43
2022-12-16T06:03:51.842Z,10.90
2022-12-16T06:06:37.375Z,10.83
2022-12-16T06:09:22.475Z,11.20
2022-12-16T06:12:16.993Z,13.47
2022-12-16T06:15:02.195Z,11.57
2022-12-16T06:17:48.662Z,11.60
2022-12-16T06:20:34.134Z,11.60
2022-12-16T06:23:25.319Z,11.80
2022-12-16T06:26:10.670Z,11.97
2022-12-16T06:28:56.096Z,12.33
2022-12-16T06:31:41.476Z,14.00
2022-12-16T06:34:24.580Z,14.43
2022-12-16T06:37:09.907Z,11.73
2022-12-16T06:39:55.142Z,11.23
2022-12-16T06:42:40.376Z,11.73
2022-12-16T06:45:31.422Z,10.03
2022-12-16T06:48:19.704Z,11.47
2022-12-16T06:51:06.566Z,10.87
2022-12-16T06:53:51.985Z,11.57
2022-12-16T06:56:37.415Z,12.00
2022-12-16T06:59:23.255Z,10.70
2022-12-16T07:02:08.798Z,10.77
2022-12-16T07:04:54.456Z,10.20
2022-12-16T07:07:41.102Z,12.27
2022-12-16T07:10:27.158Z,10.23
2022-12-16T07:13:15.949Z,11.90
2022-12-16T07:16:01.046Z,11.60
2022-12-16T07:18:46.438Z,10.00
2022-12-16T07:21:31.651Z,11.13
2022-12-16T07:24:18.294Z,12.03
2022-12-16T07:27:03.894Z,9.83
2022-12-16T07:29:49.586Z,9.40
2022-12-16T07:32:47.806Z,9.07
2022-12-16T07:35:33.246Z,10.60
2022-12-16T07:38:18.521Z,10.20
2022-12-16T07:41:06.591Z,11.37
2022-12-16T07:43:51.878Z,11.87
2022-12-16T07:46:37.031Z,11.57
2022-12-16T07:49:22.363Z,12.23
2022-12-16T07:52:09.746Z,9.87
2022-12-16T07:54:58.825Z,10.03
2022-12-16T07:57:45.625Z,10.80
2022-12-16T08:00:31.456Z,12.03
2022-12-16T08:03:17.042Z,12.60
2022-12-16T08:06:02.295Z,11.60
2022-12-16T08:08:47.399Z,12.33
2022-12-16T08:11:32.736Z,12.67
2022-12-16T08:14:15.843Z,11.33
2022-12-16T08:17:01.499Z,11.13
2022-12-16T08:19:46.640Z,12.37
2022-12-16T08:22:46.411Z,14.33
2022-12-16T08:25:31.859Z,14.77
2022-12-16T08:28:22.468Z,11.27
2022-12-16T08:31:10.263Z,12.97
2022-12-16T08:33:55.465Z,12.13
2022-12-16T08:36:41.154Z,12.03
2022-12-16T08:39:41.025Z,11.57
2022-12-16T08:42:26.003Z,15.67
2022-12-16T08:45:11.203Z,15.93
2022-12-16T08:47:58.072Z,15.17
2022-12-16T08:50:43.783Z,14.93
2022-12-16T08:53:29.177Z,15.93
2022-12-16T08:56:14.192Z,15.27
2022-12-16T08:59:01.418Z,17.33
2022-12-16T09:01:49.094Z,14.73
2022-12-16T09:04:35.802Z,17.43
2022-12-16T09:07:21.309Z,14.30
2022-12-16T09:10:06.453Z,15.73
2022-12-16T09:12:51.622Z,15.97
2022-12-16T09:15:37.264Z,16.77
2022-12-16T09:18:22.665Z,16.47
2022-12-16T09:21:09.801Z,16.77
2022-12-16T09:23:55.248Z,15.63
2022-12-16T09:26:40.912Z,15.50
2022-12-16T09:29:26.494Z,18.13
2022-12-16T09:32:11.531Z,16.20
2022-12-16T09:34:56.965Z,17.07
2022-12-16T09:37:43.443Z,16.07
2022-12-16T09:40:32.179Z,17.80
2022-12-16T09:43:25.268Z,16.63
2022-12-16T09:46:18.853Z,19.90
2022-12-16T09:49:10.223Z,20.47
2022-12-16T09:51:57.973Z,19.43
2022-12-16T09:54:48.074Z,19.73
2022-12-16T09:57:34.221Z,21.17
2022-12-16T10:00:26.700Z,24.43
2022-12-16T10:03:14.481Z,21.70
2022-12-16T10:06:10.464Z,20.37
2022-12-16T10:09:06.989Z,20.13
2022-12-16T10:12:16.290Z,18.87
2022-12-16T10:15:10.168Z,21.03
2022-12-16T10:18:02.057Z,20.23
2022-12-16T10:20:54.659Z,19.47
2022-12-16T10:23:46.809Z,20.80
2022-12-16T10:26:39.279Z,20.33
2022-12-16T10:29:35.462Z,19.87
2022-12-16T10:32:29.375Z,20.27
2022-12-16T10:35:15.399Z,23.57
2022-12-16T10:38:01.754Z,22.77
2022-12-16T10:40:54.297Z,22.23
2022-12-16T10:43:49.770Z,21.97
2022-12-16T10:46:42.600Z,20.20
2022-12-16T10:49:32.848Z,21.80
2022-12-16T10:52:23.934Z,19.80
2022-12-16T10:55:22.263Z,22.20
2022-12-16T10:58:17.690Z,21.73
2022-12-16T11:01:11.097Z,20.23
2022-12-16T11:03:59.388Z,23.43
2022-12-16T11:06:46.761Z,23.20
2022-12-16T11:09:41.132Z,22.27
2022-12-16T11:12:40.410Z,21.83
2022-12-16T11:15:41.881Z,43.83
2022-12-16T11:18:33.333Z,25.10
2022-12-16T11:21:32.351Z,24.57
2022-12-16T11:24:29.497Z,22.77
2022-12-16T11:27:24.103Z,20.80
2022-12-16T11:30:11.920Z,24.07
2022-12-16T11:33:01.059Z,24.93
2022-12-16T11:35:49.119Z,31.67
2022-12-16T11:38:41.826Z,25.53
2022-12-16T11:41:33.786Z,28.13
2022-12-16T11:44:20.633Z,46.37
2022-12-16T11:47:06.473Z,26.30
2022-12-16T11:49:52.016Z,34.47
2022-12-16T11:52:39.808Z,29.90
2022-12-16T11:58:50.594Z,26.23
2022-12-16T12:01:55.524Z,27.73
2022-12-16T12:04:41.924Z,24.77
2022-12-16T12:07:45.273Z,24.03
2022-12-16T12:11:00.859Z,24.03
2022-12-16T12:14:08.508Z,24.37
2022-12-16T12:17:07.553Z,25.20
2022-12-16T12:20:05.325Z,24.67
2022-12-16T12:22:54.812Z,25.93
2022-12-16T12:25:49.301Z,25.60
2022-12-16T12:28:47.025Z,24.67
2022-12-16T12:31:44.156Z,22.87
2022-12-16T12:34:37.575Z,24.07
2022-12-16T12:37:30.091Z,24.57
2022-12-16T12:40:37.579Z,24.63
2022-12-16T12:43:39.772Z,24.93
2022-12-16T12:46:37.593Z,25.80
2022-12-16T12:49:29.777Z,25.00
2022-12-16T12:52:22.298Z,26.27
2022-12-16T12:55:12.042Z,24.83
2022-12-16T12:57:59.982Z,25.50
2022-12-16T13:00:53.637Z,24.83
2022-12-16T13:03:49.779Z,25.97
2022-12-16T13:06:36.587Z,26.13
2022-12-16T13:09:40.862Z,26.57
2022-12-16T13:12:44.939Z,23.97
2022-12-16T13:15:46.226Z,24.47
2022-12-16T13:18:50.635Z,27.63
2022-12-16T13:22:01.549Z,25.53
2022-12-16T13:24:55.358Z,27.00
2022-12-16T13:27:41.603Z,27.10
2022-12-16T13:30:41.184Z,26.90
2022-12-16T13:33:41.394Z,27.50
2022-12-16T13:36:29.462Z,27.90
2022-12-16T13:39:25.977Z,28.10
2022-12-16T13:42:18.504Z,27.47
2022-12-16T13:45:15.362Z,26.37
2022-12-16T13:48:23.736Z,28.00
2022-12-16T13:51:18.443Z,28.53
2022-12-16T13:54:10.277Z,27.20
2022-12-16T13:56:59.226Z,28.87
2022-12-16T13:59:47.994Z,30.27
2022-12-16T14:02:43.803Z,28.07
2022-12-16T14:05:37.232Z,29.37
2022-12-16T14:08:24.975Z,28.60
2022-12-16T14:11:19.258Z,29.90
2022-12-16T14:14:12.526Z,29.03
2022-12-16T14:17:09.361Z,28.97
2022-12-16T14:20:08.631Z,28.30
2022-12-16T14:23:10.644Z,30.73
2022-12-16T14:26:13.488Z,30.63
2022-12-16T14:29:01.138Z,32.77
2022-12-16T14:31:52.746Z,34.57
2022-12-16T14:34:40.503Z,32.93
2022-12-16T14:37:31.962Z,34.37
2022-12-16T14:40:16.882Z,32.20
2022-12-16T14:43:02.791Z,33.73
2022-12-16T14:45:52.432Z,35.30
2022-12-16T14:48:49.598Z,34.13
2022-12-16T14:51:46.749Z,33.10
2022-12-16T14:54:41.947Z,34.03
2022-12-16T14:57:33.038Z,32.40
2022-12-16T15:00:20.436Z,32.37
2022-12-16T15:03:10.361Z,33.37
2022-12-16T15:05:58.223Z,32.80
2022-12-16T15:08:45.207Z,31.77
2022-12-16T15:11:56.232Z,29.53
2022-12-16T15:14:45.135Z,30.67
2022-12-16T15:17:40.077Z,29.23
2022-12-16T15:20:37.816Z,29.07
2022-12-16T15:23:34.674Z,29.23
2022-12-16T15:26:20.538Z,29.07
2022-12-16T15:29:06.285Z,29.93
2022-12-16T15:31:55.158Z,28.93
2022-12-16T15:34:49.033Z,30.13
2022-12-16T15:37:39.507Z,29.83
2022-12-16T15:40:38.630Z,30.00
2022-12-16T15:43:24.422Z,30.10
2022-12-16T15:46:10.557Z,27.87
2022-12-16T15:48:59.233Z,29.60
2022-12-16T15:51:59.497Z,30.37
2022-12-16T15:54:46.807Z,29.47
2022-12-16T15:57:46.041Z,28.47
2022-12-16T16:00:41.849Z,28.07
2022-12-16T16:03:42.272Z,29.10
2022-12-16T16:06:41.495Z,27.67
2022-12-16T16:09:31.636Z,28.27
2022-12-16T16:12:18.399Z,28.50
2022-12-16T16:15:03.750Z,29.83
2022-12-16T16:17:48.908Z,27.93
2022-12-16T16:20:36.193Z,30.50
2022-12-16T16:23:22.052Z,31.80
2022-12-16T16:26:07.452Z,27.03
2022-12-16T16:28:54.243Z,29.90
2022-12-16T16:31:39.393Z,28.17
2022-12-16T16:34:24.939Z,31.20
2022-12-16T16:37:12.756Z,31.03
2022-12-16T16:39:58.229Z,33.57
2022-12-16T16:42:43.871Z,30.97
2022-12-16T16:45:30.911Z,33.50
2022-12-16T16:48:23.936Z,30.70
2022-12-16T16:51:09.328Z,30.17
2022-12-16T16:53:54.842Z,32.20
2022-12-16T16:56:40.031Z,33.53
2022-12-16T16:59:25.170Z,38.57
2022-12-16T17:02:12.044Z,37.47
2022-12-16T17:04:57.359Z,36.87
2022-12-16T17:07:42.785Z,38.17
2022-12-16T17:10:28.452Z,36.87
2022-12-16T17:13:13.757Z,36.73
2022-12-16T17:15:59.420Z,35.40
2022-12-16T17:18:51.972Z,34.13
2022-12-16T17:21:37.470Z,37.43
2022-12-16T17:24:22.764Z,34.60
2022-12-16T17:27:07.796Z,37.10
2022-12-16T17:29:53.238Z,36.07
2022-12-16T17:32:38.218Z,39.00
2022-12-16T17:35:25.502Z,37.57
2022-12-16T17:38:10.699Z,34.73
2022-12-16T17:40:55.655Z,36.30
2022-12-16T17:43:40.848Z,33.10
2022-12-16T17:46:30.162Z,36.00
2022-12-16T17:49:22.110Z,35.83
2022-12-16T17:52:08.435Z,32.73
2022-12-16T17:54:53.982Z,37.37
2022-12-16T17:57:38.999Z,36.60
2022-12-16T18:00:25.240Z,37.13
2022-12-16T18:03:10.684Z,34.97
2022-12-16T18:05:55.984Z,33.50
2022-12-16T18:08:42.480Z,34.93
2022-12-16T18:11:27.566Z,33.37
2022-12-16T18:14:12.614Z,33.13
2022-12-16T18:16:57.755Z,31.10
2022-12-16T18:19:43.715Z,33.63
2022-12-16T18:22:43.351Z,33.33
2022-12-16T18:25:29.920Z,33.73
2022-12-16T18:28:15.045Z,35.67
2022-12-16T18:31:08.893Z,36.43
2022-12-16T18:33:54.291Z,34.80
2022-12-16T18:36:39.287Z,35.77
2022-12-16T18:39:24.702Z,32.63
2022-12-16T18:42:11.053Z,32.40
2022-12-16T18:45:00.905Z,28.60
2022-12-16T18:47:46.552Z,30.40
2022-12-16T18:50:37.459Z,31.43
2022-12-16T18:53:23.895Z,27.77
2022-12-16T18:56:18.109Z,30.63
2022-12-16T18:59:04.960Z,30.17
2022-12-16T19:01:50.134Z,31.07
2022-12-16T19:04:35.670Z,32.37
2022-12-16T19:07:21.054Z,33.33
2022-12-16T19:10:06.210Z,33.47
2022-12-16T19:12:51.535Z,33.30
2022-12-16T19:15:41.198Z,32.43
2022-12-16T19:18:27.193Z,31.90
2022-12-16T19:21:12.689Z,30.33
2022-12-16T19:23:58.012Z,29.87
2022-12-16T19:26:56.401Z,27.87
2022-12-16T19:29:42.426Z,28.97
2022-12-16T19:32:29.036Z,27.37
2022-12-16T19:35:14.338Z,28.13
2022-12-16T19:37:59.499Z,26.67
2022-12-16T19:40:44.388Z,27.83
2022-12-16T19:43:30.130Z,29.20
2022-12-16T19:46:15.360Z,26.83
2022-12-16T19:49:01.985Z,26.77
2022-12-16T19:51:47.633Z,27.73
2022-12-16T19:54:32.562Z,26.97
2022-12-16T19:57:23.226Z,25.07
2022-12-16T20:00:08.678Z,26.97
2022-12-16T20:02:56.536Z,26.07
2022-12-16T20:05:43.232Z,24.93
2022-12-16T20:08:28.850Z,23.47
2022-12-16T20:11:14.221Z,28.23
2022-12-16T20:13:59.403Z,30.57
2022-12-16T20:16:44.738Z,32.20
2022-12-16T20:19:29.801Z,31.80
2022-12-16T20:22:16.744Z,28.97
2022-12-16T20:25:02.046Z,27.10
2022-12-16T20:27:47.273Z,30.60
2022-12-16T20:30:32.814Z,31.23
2022-12-16T20:33:17.867Z,31.07
2022-12-16T20:36:13.902Z,30.93
2022-12-16T20:39:00.561Z,32.83
2022-12-16T20:41:45.725Z,34.03
2022-12-16T20:44:36.502Z,28.97
2022-12-16T20:47:22.207Z,29.47
2022-12-16T20:50:07.574Z,27.87
2022-12-16T20:52:52.741Z,24.60
2022-12-16T20:55:39.961Z,32.70
2022-12-16T20:58:25.643Z,30.63
2022-12-16T21:01:11.437Z,31.20
2022-12-16T21:03:56.823Z,30.37
2022-12-16T21:06:42.131Z,31.60
2022-12-16T21:09:27.534Z,29.97
2022-12-16T21:12:14.404Z,27.63
2022-12-16T21:14:59.667Z,29.47
2022-12-16T21:17:44.868Z,25.97
2022-12-16T21:20:30.179Z,26.73
2022-12-16T21:23:19.447Z,28.63
2022-12-16T21:26:04.802Z,22.77
2022-12-16T21:28:51.832Z,24.93
2022-12-16T21:31:37.330Z,25.70
2022-12-16T21:34:23.111Z,26.77
2022-12-16T21:37:09.336Z,25.77
2022-12-16T21:39:54.966Z,27.53
2022-12-16T21:42:44.055Z,27.00
2022-12-16T21:45:31.608Z,26.80
2022-12-16T21:48:16.577Z,26.33
2022-12-16T21:51:02.003Z,25.03
2022-12-16T21:53:47.600Z,30.20
2022-12-16T21:56:33.348Z,27.90
2022-12-16T21:59:33.434Z,29.73
2022-12-16T22:02:19.769Z,27.33
2022-12-16T22:05:16.290Z,29.17
2022-12-16T22:08:01.873Z,28.67
2022-12-16T22:10:47.341Z,26.87
2022-12-16T22:13:32.632Z,30.43
2022-12-16T22:16:18.911Z,28.47
2022-12-16T22:19:05.381Z,31.27
2022-12-16T22:21:50.926Z,30.30
2022-12-16T22:24:36.826Z,28.40
2022-12-16T22:27:22.101Z,28.67
2022-12-16T22:30:07.154Z,29.80
2022-12-16T22:32:48.786Z,28.67
2022-12-16T22:35:35.794Z,29.63
2022-12-16T22:38:21.291Z,30.10
2022-12-16T22:41:13.026Z,27.60
2022-12-16T22:43:58.411Z,27.97
2022-12-16T22:46:44.181Z,27.63
2022-12-16T22:49:29.276Z,29.87
2022-12-16T22:52:18.057Z,29.57
2022-12-16T22:55:05.940Z,30.60
2022-12-16T22:57:53.379Z,27.37
2022-12-16T23:00:39.569Z,30.03
2022-12-16T23:03:24.641Z,27.23
2022-12-16T23:06:09.675Z,30.90
2022-12-16T23:08:56.817Z,36.50
2022-12-16T23:11:45.339Z,31.17
2022-12-16T23:14:34.657Z,30.60
2022-12-16T23:17:23.506Z,24.33
2022-12-16T23:20:08.867Z,29.87
2022-12-16T23:23:03.406Z,28.70
2022-12-16T23:25:50.053Z,27.70
2022-12-16T23:28:35.208Z,27.33
2022-12-16T23:31:20.664Z,26.57
2022-12-16T23:34:05.786Z,27.37
2022-12-16T23:36:51.263Z,26.60
2022-12-16T23:39:38.598Z,27.83
2022-12-16T23:42:36.784Z,27.47
2022-12-16T23:45:22.495Z,24.47
2022-12-16T23:48:07.858Z,27.50
2022-12-16T23:50:53.300Z,25.50
2022-12-16T23:53:41.824Z,25.83
2022-12-16T23:56:27.070Z,26.23
2022-12-16T23:59:13.527Z,25.23
